sensor_id;sensor_type;location;lat;lon;timestamp;temperature;humidity
44461;DHT22;30162;53.642;10.640;2022-11-15T00:01:18;10.10;92.60
44461;DHT22;30162;53.642;10.640;2022-11-15T00:03:44;10.00;93.30
44461;DHT22;30162;53.642;10.640;2022-11-15T00:06:09;9.90;92.90
44461;DHT22;30162;53.642;10.640;2022-11-15T00:08:35;10.00;93.00
44461;DHT22;30162;53.642;10.640;2022-11-15T00:11:02;9.80;93.10
44461;DHT22;30162;53.642;10.640;2022-11-15T00:13:28;9.60;93.20
44461;DHT22;30162;53.642;10.640;2022-11-15T00:16:00;9.70;93.20
44461;DHT22;30162;53.642;10.640;2022-11-15T00:18:26;9.80;93.20
44461;DHT22;30162;53.642;10.640;2022-11-15T00:20:52;9.60;93.40
44461;DHT22;30162;53.642;10.640;2022-11-15T00:23:17;9.70;93.30
44461;DHT22;30162;53.642;10.640;2022-11-15T00:25:43;9.80;93.40
44461;DHT22;30162;53.642;10.640;2022-11-15T00:28:08;10.00;93.20
44461;DHT22;30162;53.642;10.640;2022-11-15T00:30:34;9.80;93.00
44461;DHT22;30162;53.642;10.640;2022-11-15T00:33:06;9.90;93.00
44461;DHT22;30162;53.642;10.640;2022-11-15T00:35:33;10.10;92.70
44461;DHT22;30162;53.642;10.640;2022-11-15T00:37:59;10.00;92.40
44461;DHT22;30162;53.642;10.640;2022-11-15T00:40:24;10.10;92.40
44461;DHT22;30162;53.642;10.640;2022-11-15T00:42:50;10.10;92.20
44461;DHT22;30162;53.642;10.640;2022-11-15T00:45:15;9.80;92.60
44461;DHT22;30162;53.642;10.640;2022-11-15T00:47:44;9.80;92.70
44461;DHT22;30162;53.642;10.640;2022-11-15T00:50:10;9.80;92.70
44461;DHT22;30162;53.642;10.640;2022-11-15T00:52:36;9.60;93.00
44461;DHT22;30162;53.642;10.640;2022-11-15T00:55:01;9.60;93.20
44461;DHT22;30162;53.642;10.640;2022-11-15T00:57:27;9.70;93.20
44461;DHT22;30162;53.642;10.640;2022-11-15T00:59:52;9.80;93.00
44461;DHT22;30162;53.642;10.640;2022-11-15T01:02:18;9.80;92.80
44461;DHT22;30162;53.642;10.640;2022-11-15T01:04:43;9.60;92.90
44461;DHT22;30162;53.642;10.640;2022-11-15T01:07:09;9.60;92.90
44461;DHT22;30162;53.642;10.640;2022-11-15T01:09:35;9.80;92.90
44461;DHT22;30162;53.642;10.640;2022-11-15T01:12:00;9.90;92.60
44461;DHT22;30162;53.642;10.640;2022-11-15T01:14:26;9.80;92.50
44461;DHT22;30162;53.642;10.640;2022-11-15T01:16:51;9.70;92.80
44461;DHT22;30162;53.642;10.640;2022-11-15T01:19:17;9.60;92.90
44461;DHT22;30162;53.642;10.640;2022-11-15T01:21:42;9.40;93.50
44461;DHT22;30162;53.642;10.640;2022-11-15T01:24:12;9.40;93.30
44461;DHT22;30162;53.642;10.640;2022-11-15T01:26:38;9.40;93.40
44461;DHT22;30162;53.642;10.640;2022-11-15T01:29:03;9.60;93.30
44461;DHT22;30162;53.642;10.640;2022-11-15T01:31:29;9.70;92.70
44461;DHT22;30162;53.642;10.640;2022-11-15T01:33:55;9.60;92.60
44461;DHT22;30162;53.642;10.640;2022-11-15T01:36:21;9.50;93.00
44461;DHT22;30162;53.642;10.640;2022-11-15T01:38:52;9.60;93.00
44461;DHT22;30162;53.642;10.640;2022-11-15T01:41:20;9.30;93.50
44461;DHT22;30162;53.642;10.640;2022-11-15T01:43:50;9.30;93.80
44461;DHT22;30162;53.642;10.640;2022-11-15T01:46:32;9.50;93.40
44461;DHT22;30162;53.642;10.640;2022-11-15T01:49:02;9.60;92.70
44461;DHT22;30162;53.642;10.640;2022-11-15T01:51:31;9.50;92.60
44461;DHT22;30162;53.642;10.640;2022-11-15T01:54:01;9.50;92.60
44461;DHT22;30162;53.642;10.640;2022-11-15T01:56:30;9.50;92.60
44461;DHT22;30162;53.642;10.640;2022-11-15T01:58:58;9.50;92.70
44461;DHT22;30162;53.642;10.640;2022-11-15T02:01:25;9.60;92.80
44461;DHT22;30162;53.642;10.640;2022-11-15T02:04:02;9.60;92.60
44461;DHT22;30162;53.642;10.640;2022-11-15T02:06:29;9.60;92.60
44461;DHT22;30162;53.642;10.640;2022-11-15T02:08:56;9.40;92.10
44461;DHT22;30162;53.642;10.640;2022-11-15T02:11:22;9.20;92.40
44461;DHT22;30162;53.642;10.640;2022-11-15T02:13:48;9.30;92.30
44461;DHT22;30162;53.642;10.640;2022-11-15T02:16:22;9.10;92.50
44461;DHT22;30162;53.642;10.640;2022-11-15T02:23:19;8.80;92.50
44461;DHT22;30162;53.642;10.640;2022-11-15T02:30:52;8.80;92.90
44461;DHT22;30162;53.642;10.640;2022-11-15T02:35:59;8.70;93.20
44461;DHT22;30162;53.642;10.640;2022-11-15T02:41:26;8.80;92.90
44461;DHT22;30162;53.642;10.640;2022-11-15T02:44:10;8.70;93.20
44461;DHT22;30162;53.642;10.640;2022-11-15T02:46:51;8.70;93.20
44461;DHT22;30162;53.642;10.640;2022-11-15T02:49:53;8.80;93.30
44461;DHT22;30162;53.642;10.640;2022-11-15T02:52:22;8.90;92.90
44461;DHT22;30162;53.642;10.640;2022-11-15T02:54:59;8.80;93.20
44461;DHT22;30162;53.642;10.640;2022-11-15T03:00:50;8.70;93.20
44461;DHT22;30162;53.642;10.640;2022-11-15T03:09:40;8.80;93.10
44461;DHT22;30162;53.642;10.640;2022-11-15T03:12:21;8.70;92.70
44461;DHT22;30162;53.642;10.640;2022-11-15T03:14:51;8.90;93.00
44461;DHT22;30162;53.642;10.640;2022-11-15T03:17:26;8.80;93.00
44461;DHT22;30162;53.642;10.640;2022-11-15T03:19:55;8.70;92.80
44461;DHT22;30162;53.642;10.640;2022-11-15T03:22:23;8.60;92.90
44461;DHT22;30162;53.642;10.640;2022-11-15T03:24:55;8.50;93.70
44461;DHT22;30162;53.642;10.640;2022-11-15T03:27:25;8.70;93.50
44461;DHT22;30162;53.642;10.640;2022-11-15T03:29:58;8.80;93.30
44461;DHT22;30162;53.642;10.640;2022-11-15T03:32:28;8.70;92.50
44461;DHT22;30162;53.642;10.640;2022-11-15T03:35:07;8.70;93.00
44461;DHT22;30162;53.642;10.640;2022-11-15T03:38:00;8.80;93.10
44461;DHT22;30162;53.642;10.640;2022-11-15T03:40:41;8.80;92.80
44461;DHT22;30162;53.642;10.640;2022-11-15T03:45:42;8.50;93.40
44461;DHT22;30162;53.642;10.640;2022-11-15T03:48:20;8.70;93.30
44461;DHT22;30162;53.642;10.640;2022-11-15T03:50:47;8.80;92.90
44461;DHT22;30162;53.642;10.640;2022-11-15T03:53:14;8.70;93.40
44461;DHT22;30162;53.642;10.640;2022-11-15T03:55:39;8.80;93.50
44461;DHT22;30162;53.642;10.640;2022-11-15T03:58:05;8.90;93.00
44461;DHT22;30162;53.642;10.640;2022-11-15T04:00:30;9.00;92.80
44461;DHT22;30162;53.642;10.640;2022-11-15T04:02:56;8.70;93.00
44461;DHT22;30162;53.642;10.640;2022-11-15T04:05:22;8.80;93.50
44461;DHT22;30162;53.642;10.640;2022-11-15T04:07:47;8.70;93.20
44461;DHT22;30162;53.642;10.640;2022-11-15T04:10:13;8.90;93.50
44461;DHT22;30162;53.642;10.640;2022-11-15T04:12:41;8.90;93.10
44461;DHT22;30162;53.642;10.640;2022-11-15T04:17:38;9.10;92.80
44461;DHT22;30162;53.642;10.640;2022-11-15T04:20:05;8.90;92.80
44461;DHT22;30162;53.642;10.640;2022-11-15T04:22:55;8.90;93.00
44461;DHT22;30162;53.642;10.640;2022-11-15T04:25:39;9.00;93.10
44461;DHT22;30162;53.642;10.640;2022-11-15T04:28:05;8.90;92.50
44461;DHT22;30162;53.642;10.640;2022-11-15T04:30:30;8.80;93.20
44461;DHT22;30162;53.642;10.640;2022-11-15T04:32:56;8.90;93.10
44461;DHT22;30162;53.642;10.640;2022-11-15T04:35:21;9.00;92.90
44461;DHT22;30162;53.642;10.640;2022-11-15T04:37:47;9.00;92.80
44461;DHT22;30162;53.642;10.640;2022-11-15T04:40:12;8.70;93.20
44461;DHT22;30162;53.642;10.640;2022-11-15T04:42:40;8.80;93.30
44461;DHT22;30162;53.642;10.640;2022-11-15T04:45:07;8.80;93.20
44461;DHT22;30162;53.642;10.640;2022-11-15T04:47:32;8.80;93.40
44461;DHT22;30162;53.642;10.640;2022-11-15T04:49:58;9.00;93.70
44461;DHT22;30162;53.642;10.640;2022-11-15T04:52:23;8.90;93.40
44461;DHT22;30162;53.642;10.640;2022-11-15T04:54:49;9.00;93.20
44461;DHT22;30162;53.642;10.640;2022-11-15T04:57:14;9.10;92.90
44461;DHT22;30162;53.642;10.640;2022-11-15T04:59:40;9.20;93.00
44461;DHT22;30162;53.642;10.640;2022-11-15T05:02:05;9.00;93.10
44461;DHT22;30162;53.642;10.640;2022-11-15T05:04:31;9.20;92.90
44461;DHT22;30162;53.642;10.640;2022-11-15T05:06:56;8.90;93.00
44461;DHT22;30162;53.642;10.640;2022-11-15T05:09:22;9.10;93.30
44461;DHT22;30162;53.642;10.640;2022-11-15T05:11:48;9.10;93.40
44461;DHT22;30162;53.642;10.640;2022-11-15T05:14:14;9.20;93.40
44461;DHT22;30162;53.642;10.640;2022-11-15T05:16:39;9.30;92.90
44461;DHT22;30162;53.642;10.640;2022-11-15T05:19:05;9.30;93.40
44461;DHT22;30162;53.642;10.640;2022-11-15T05:21:31;9.40;93.30
44461;DHT22;30162;53.642;10.640;2022-11-15T05:23:57;9.50;93.40
44461;DHT22;30162;53.642;10.640;2022-11-15T05:26:24;9.50;93.30
44461;DHT22;30162;53.642;10.640;2022-11-15T05:28:57;9.50;93.50
44461;DHT22;30162;53.642;10.640;2022-11-15T05:31:24;9.60;93.10
44461;DHT22;30162;53.642;10.640;2022-11-15T05:33:50;9.60;93.10
44461;DHT22;30162;53.642;10.640;2022-11-15T05:36:38;9.60;93.30
44461;DHT22;30162;53.642;10.640;2022-11-15T05:39:07;9.60;93.10
44461;DHT22;30162;53.642;10.640;2022-11-15T05:41:37;9.50;93.20
44461;DHT22;30162;53.642;10.640;2022-11-15T05:44:07;9.50;93.40
44461;DHT22;30162;53.642;10.640;2022-11-15T05:46:36;9.50;93.40
44461;DHT22;30162;53.642;10.640;2022-11-15T05:49:06;9.10;93.80
44461;DHT22;30162;53.642;10.640;2022-11-15T05:51:32;9.30;94.00
44461;DHT22;30162;53.642;10.640;2022-11-15T05:53:58;9.30;93.50
44461;DHT22;30162;53.642;10.640;2022-11-15T05:56:25;9.10;93.90
44461;DHT22;30162;53.642;10.640;2022-11-15T05:58:53;9.20;93.90
44461;DHT22;30162;53.642;10.640;2022-11-15T06:01:20;9.50;93.80
44461;DHT22;30162;53.642;10.640;2022-11-15T06:03:45;9.60;93.60
44461;DHT22;30162;53.642;10.640;2022-11-15T06:06:11;9.60;93.00
44461;DHT22;30162;53.642;10.640;2022-11-15T06:08:36;9.40;93.30
44461;DHT22;30162;53.642;10.640;2022-11-15T06:11:06;9.40;93.40
44461;DHT22;30162;53.642;10.640;2022-11-15T06:13:33;9.50;93.10
44461;DHT22;30162;53.642;10.640;2022-11-15T06:15:59;9.60;92.80
44461;DHT22;30162;53.642;10.640;2022-11-15T06:18:24;9.40;92.80
44461;DHT22;30162;53.642;10.640;2022-11-15T06:20:50;9.40;92.80
44461;DHT22;30162;53.642;10.640;2022-11-15T06:23:16;9.50;92.80
44461;DHT22;30162;53.642;10.640;2022-11-15T06:25:41;9.50;92.70
44461;DHT22;30162;53.642;10.640;2022-11-15T06:28:07;9.40;92.60
44461;DHT22;30162;53.642;10.640;2022-11-15T06:30:32;9.50;92.60
44461;DHT22;30162;53.642;10.640;2022-11-15T06:33:03;9.40;92.50
44461;DHT22;30162;53.642;10.640;2022-11-15T06:35:30;9.20;92.80
44461;DHT22;30162;53.642;10.640;2022-11-15T06:37:59;9.10;92.70
44461;DHT22;30162;53.642;10.640;2022-11-15T06:40:26;9.30;93.00
44461;DHT22;30162;53.642;10.640;2022-11-15T06:42:57;9.40;92.80
44461;DHT22;30162;53.642;10.640;2022-11-15T06:45:23;9.30;92.80
44461;DHT22;30162;53.642;10.640;2022-11-15T06:47:48;9.20;93.00
44461;DHT22;30162;53.642;10.640;2022-11-15T06:50:14;9.20;92.90
44461;DHT22;30162;53.642;10.640;2022-11-15T06:52:40;9.20;93.00
44461;DHT22;30162;53.642;10.640;2022-11-15T06:55:06;9.20;93.20
44461;DHT22;30162;53.642;10.640;2022-11-15T06:57:32;9.30;93.20
44461;DHT22;30162;53.642;10.640;2022-11-15T06:59:57;9.40;92.70
44461;DHT22;30162;53.642;10.640;2022-11-15T07:02:23;9.50;92.60
44461;DHT22;30162;53.642;10.640;2022-11-15T07:04:48;9.60;92.80
44461;DHT22;30162;53.642;10.640;2022-11-15T07:07:14;9.60;92.70
44461;DHT22;30162;53.642;10.640;2022-11-15T07:09:39;9.60;92.80
44461;DHT22;30162;53.642;10.640;2022-11-15T07:12:05;9.50;93.00
44461;DHT22;30162;53.642;10.640;2022-11-15T07:14:31;9.60;93.30
44461;DHT22;30162;53.642;10.640;2022-11-15T07:16:56;9.60;93.40
44461;DHT22;30162;53.642;10.640;2022-11-15T07:19:22;9.70;93.30
44461;DHT22;30162;53.642;10.640;2022-11-15T07:21:47;9.70;93.20
44461;DHT22;30162;53.642;10.640;2022-11-15T07:24:13;9.60;93.30
44461;DHT22;30162;53.642;10.640;2022-11-15T07:26:38;9.70;93.60
44461;DHT22;30162;53.642;10.640;2022-11-15T07:29:04;9.90;93.50
44461;DHT22;30162;53.642;10.640;2022-11-15T07:31:29;9.90;93.20
44461;DHT22;30162;53.642;10.640;2022-11-15T07:33:55;10.20;93.20
44461;DHT22;30162;53.642;10.640;2022-11-15T07:36:20;10.20;93.10
44461;DHT22;30162;53.642;10.640;2022-11-15T07:38:46;10.30;93.10
44461;DHT22;30162;53.642;10.640;2022-11-15T07:41:11;10.30;93.00
44461;DHT22;30162;53.642;10.640;2022-11-15T07:43:37;10.30;93.00
44461;DHT22;30162;53.642;10.640;2022-11-15T07:46:07;10.50;93.10
44461;DHT22;30162;53.642;10.640;2022-11-15T07:48:38;10.60;92.80
44461;DHT22;30162;53.642;10.640;2022-11-15T07:51:06;10.60;92.80
44461;DHT22;30162;53.642;10.640;2022-11-15T07:53:31;10.40;92.90
44461;DHT22;30162;53.642;10.640;2022-11-15T07:55:57;10.40;92.70
44461;DHT22;30162;53.642;10.640;2022-11-15T07:58:22;10.40;93.10
44461;DHT22;30162;53.642;10.640;2022-11-15T08:00:48;10.50;92.90
44461;DHT22;30162;53.642;10.640;2022-11-15T08:03:15;10.40;93.00
44461;DHT22;30162;53.642;10.640;2022-11-15T08:05:42;10.50;93.00
44461;DHT22;30162;53.642;10.640;2022-11-15T08:08:09;10.60;92.80
44461;DHT22;30162;53.642;10.640;2022-11-15T08:10:36;10.50;92.70
44461;DHT22;30162;53.642;10.640;2022-11-15T08:13:04;10.40;93.30
44461;DHT22;30162;53.642;10.640;2022-11-15T08:15:30;10.50;93.50
44461;DHT22;30162;53.642;10.640;2022-11-15T08:18:01;10.50;93.50
44461;DHT22;30162;53.642;10.640;2022-11-15T08:20:28;10.50;93.40
44461;DHT22;30162;53.642;10.640;2022-11-15T08:22:59;10.60;93.50
44461;DHT22;30162;53.642;10.640;2022-11-15T08:25:26;10.90;93.30
44461;DHT22;30162;53.642;10.640;2022-11-15T08:27:53;11.10;93.00
44461;DHT22;30162;53.642;10.640;2022-11-15T08:30:19;11.10;92.90
44461;DHT22;30162;53.642;10.640;2022-11-15T08:32:44;11.10;92.80
44461;DHT22;30162;53.642;10.640;2022-11-15T08:35:10;11.20;92.90
44461;DHT22;30162;53.642;10.640;2022-11-15T08:37:36;10.90;93.00
44461;DHT22;30162;53.642;10.640;2022-11-15T08:40:02;11.10;93.20
44461;DHT22;30162;53.642;10.640;2022-11-15T08:42:28;11.20;93.10
44461;DHT22;30162;53.642;10.640;2022-11-15T08:44:53;11.30;92.80
44461;DHT22;30162;53.642;10.640;2022-11-15T08:47:19;11.40;92.90
44461;DHT22;30162;53.642;10.640;2022-11-15T08:49:44;11.40;92.70
44461;DHT22;30162;53.642;10.640;2022-11-15T08:52:10;11.40;92.80
44461;DHT22;30162;53.642;10.640;2022-11-15T08:54:35;11.50;92.60
44461;DHT22;30162;53.642;10.640;2022-11-15T08:57:01;11.70;92.50
44461;DHT22;30162;53.642;10.640;2022-11-15T08:59:26;11.70;92.30
44461;DHT22;30162;53.642;10.640;2022-11-15T09:01:52;11.70;92.30
44461;DHT22;30162;53.642;10.640;2022-11-15T09:04:17;11.80;92.30
44461;DHT22;30162;53.642;10.640;2022-11-15T09:06:43;11.60;92.60
44461;DHT22;30162;53.642;10.640;2022-11-15T09:09:09;11.50;92.60
44461;DHT22;30162;53.642;10.640;2022-11-15T09:11:34;11.60;92.70
44461;DHT22;30162;53.642;10.640;2022-11-15T09:14:00;11.70;92.30
44461;DHT22;30162;53.642;10.640;2022-11-15T09:16:25;11.70;92.30
44461;DHT22;30162;53.642;10.640;2022-11-15T09:18:52;11.20;92.90
44461;DHT22;30162;53.642;10.640;2022-11-15T09:21:18;11.30;93.10
44461;DHT22;30162;53.642;10.640;2022-11-15T09:23:44;11.50;93.00
44461;DHT22;30162;53.642;10.640;2022-11-15T09:26:09;11.60;92.60
44461;DHT22;30162;53.642;10.640;2022-11-15T09:28:36;11.40;93.10
44461;DHT22;30162;53.642;10.640;2022-11-15T09:31:04;11.70;93.10
44461;DHT22;30162;53.642;10.640;2022-11-15T09:33:30;11.80;92.80
44461;DHT22;30162;53.642;10.640;2022-11-15T09:36:04;11.90;92.70
44461;DHT22;30162;53.642;10.640;2022-11-15T09:38:31;12.00;92.40
44461;DHT22;30162;53.642;10.640;2022-11-15T09:49:04;12.40;92.50
44461;DHT22;30162;53.642;10.640;2022-11-15T09:51:48;12.70;92.30
44461;DHT22;30162;53.642;10.640;2022-11-15T09:54:37;12.80;92.00
44461;DHT22;30162;53.642;10.640;2022-11-15T09:57:12;12.90;91.70
44461;DHT22;30162;53.642;10.640;2022-11-15T10:03:06;12.80;92.20
44461;DHT22;30162;53.642;10.640;2022-11-15T10:05:38;12.70;91.90
44461;DHT22;30162;53.642;10.640;2022-11-15T10:11:03;13.10;91.80
44461;DHT22;30162;53.642;10.640;2022-11-15T10:13:33;13.10;91.90
44461;DHT22;30162;53.642;10.640;2022-11-15T10:21:46;13.60;91.90
44461;DHT22;30162;53.642;10.640;2022-11-15T10:24:19;13.70;91.50
44461;DHT22;30162;53.642;10.640;2022-11-15T10:26:48;13.90;91.50
44461;DHT22;30162;53.642;10.640;2022-11-15T10:29:21;13.80;91.20
44461;DHT22;30162;53.642;10.640;2022-11-15T10:31:47;13.80;90.90
44461;DHT22;30162;53.642;10.640;2022-11-15T10:34:15;13.60;91.40
44461;DHT22;30162;53.642;10.640;2022-11-15T10:36:46;13.90;91.30
44461;DHT22;30162;53.642;10.640;2022-11-15T10:39:13;14.10;91.10
44461;DHT22;30162;53.642;10.640;2022-11-15T10:41:41;14.20;91.10
44461;DHT22;30162;53.642;10.640;2022-11-15T10:46:37;14.20;91.20
44461;DHT22;30162;53.642;10.640;2022-11-15T10:49:14;14.40;91.00
44461;DHT22;30162;53.642;10.640;2022-11-15T10:57:26;14.40;91.10
44461;DHT22;30162;53.642;10.640;2022-11-15T11:00:01;14.50;91.40
44461;DHT22;30162;53.642;10.640;2022-11-15T11:02:36;14.40;91.00
44461;DHT22;30162;53.642;10.640;2022-11-15T11:05:06;14.50;90.90
44461;DHT22;30162;53.642;10.640;2022-11-15T11:07:34;14.60;91.20
44461;DHT22;30162;53.642;10.640;2022-11-15T11:10:21;14.80;90.90
44461;DHT22;30162;53.642;10.640;2022-11-15T11:12:47;14.90;91.00
44461;DHT22;30162;53.642;10.640;2022-11-15T11:15:14;14.80;90.70
44461;DHT22;30162;53.642;10.640;2022-11-15T11:20:51;14.40;91.20
44461;DHT22;30162;53.642;10.640;2022-11-15T11:23:51;14.50;91.30
44461;DHT22;30162;53.642;10.640;2022-11-15T11:31:32;14.70;91.00
44461;DHT22;30162;53.642;10.640;2022-11-15T11:36:42;14.90;90.60
44461;DHT22;30162;53.642;10.640;2022-11-15T11:39:20;15.00;90.40
44461;DHT22;30162;53.642;10.640;2022-11-15T11:47:24;14.30;91.00
44461;DHT22;30162;53.642;10.640;2022-11-15T11:55:51;14.70;90.70
44461;DHT22;30162;53.642;10.640;2022-11-15T11:58:43;14.90;90.50
44461;DHT22;30162;53.642;10.640;2022-11-15T12:01:16;14.60;90.40
44461;DHT22;30162;53.642;10.640;2022-11-15T12:03:44;14.70;90.40
44461;DHT22;30162;53.642;10.640;2022-11-15T12:06:36;14.60;90.50
44461;DHT22;30162;53.642;10.640;2022-11-15T12:09:39;14.60;90.80
44461;DHT22;30162;53.642;10.640;2022-11-15T12:12:54;14.90;90.50
44461;DHT22;30162;53.642;10.640;2022-11-15T12:15:32;15.00;90.30
44461;DHT22;30162;53.642;10.640;2022-11-15T12:18:01;15.00;90.40
44461;DHT22;30162;53.642;10.640;2022-11-15T12:20:32;15.10;90.40
44461;DHT22;30162;53.642;10.640;2022-11-15T12:23:17;15.20;90.40
44461;DHT22;30162;53.642;10.640;2022-11-15T12:28:41;15.10;90.50
44461;DHT22;30162;53.642;10.640;2022-11-15T12:31:27;15.20;90.40
44461;DHT22;30162;53.642;10.640;2022-11-15T12:33:57;15.30;90.20
44461;DHT22;30162;53.642;10.640;2022-11-15T12:38:57;15.30;90.00
44461;DHT22;30162;53.642;10.640;2022-11-15T12:41:28;15.40;90.20
44461;DHT22;30162;53.642;10.640;2022-11-15T12:43:54;15.40;89.90
44461;DHT22;30162;53.642;10.640;2022-11-15T12:48:59;15.40;90.00
44461;DHT22;30162;53.642;10.640;2022-11-15T12:59:53;14.90;90.40
44461;DHT22;30162;53.642;10.640;2022-11-15T13:02:37;15.20;90.40
44461;DHT22;30162;53.642;10.640;2022-11-15T13:17:45;15.30;90.50
44461;DHT22;30162;53.642;10.640;2022-11-15T13:30:40;15.10;91.00
44461;DHT22;30162;53.642;10.640;2022-11-15T13:36:06;15.10;91.00
44461;DHT22;30162;53.642;10.640;2022-11-15T13:38:35;15.20;90.80
44461;DHT22;30162;53.642;10.640;2022-11-15T13:41:24;15.30;90.70
44461;DHT22;30162;53.642;10.640;2022-11-15T13:43:51;15.30;90.70
44461;DHT22;30162;53.642;10.640;2022-11-15T13:46:20;15.40;90.50
44461;DHT22;30162;53.642;10.640;2022-11-15T13:48:52;15.20;90.60
44461;DHT22;30162;53.642;10.640;2022-11-15T13:53:46;15.20;91.00
44461;DHT22;30162;53.642;10.640;2022-11-15T13:56:15;15.20;90.80
44461;DHT22;30162;53.642;10.640;2022-11-15T13:58:41;15.10;90.90
44461;DHT22;30162;53.642;10.640;2022-11-15T14:01:14;15.10;90.90
44461;DHT22;30162;53.642;10.640;2022-11-15T14:03:54;15.00;91.00
44461;DHT22;30162;53.642;10.640;2022-11-15T14:06:23;15.00;91.10
44461;DHT22;30162;53.642;10.640;2022-11-15T14:11:37;15.10;91.00
44461;DHT22;30162;53.642;10.640;2022-11-15T14:14:14;15.10;91.10
44461;DHT22;30162;53.642;10.640;2022-11-15T14:16:43;15.00;91.00
44461;DHT22;30162;53.642;10.640;2022-11-15T14:22:18;15.00;91.10
44461;DHT22;30162;53.642;10.640;2022-11-15T14:25:33;15.10;91.10
44461;DHT22;30162;53.642;10.640;2022-11-15T14:27:33;15.00;91.20
44461;DHT22;30162;53.642;10.640;2022-11-15T14:29:59;14.90;91.30
44461;DHT22;30162;53.642;10.640;2022-11-15T14:32:28;14.90;91.30
44461;DHT22;30162;53.642;10.640;2022-11-15T14:34:59;15.00;91.30
44461;DHT22;30162;53.642;10.640;2022-11-15T14:37:31;15.00;91.30
44461;DHT22;30162;53.642;10.640;2022-11-15T14:40:00;15.00;91.10
44461;DHT22;30162;53.642;10.640;2022-11-15T14:42:25;15.00;91.20
44461;DHT22;30162;53.642;10.640;2022-11-15T14:44:51;14.90;91.10
44461;DHT22;30162;53.642;10.640;2022-11-15T14:47:17;14.90;91.30
44461;DHT22;30162;53.642;10.640;2022-11-15T14:49:43;15.00;91.10
44461;DHT22;30162;53.642;10.640;2022-11-15T14:52:29;15.00;91.20
44461;DHT22;30162;53.642;10.640;2022-11-15T14:54:55;15.00;91.30
44461;DHT22;30162;53.642;10.640;2022-11-15T14:57:21;15.00;91.10
44461;DHT22;30162;53.642;10.640;2022-11-15T14:59:47;15.00;91.00
44461;DHT22;30162;53.642;10.640;2022-11-15T15:02:18;15.00;91.00
44461;DHT22;30162;53.642;10.640;2022-11-15T15:04:45;15.00;91.00
44461;DHT22;30162;53.642;10.640;2022-11-15T15:07:11;15.00;91.00
44461;DHT22;30162;53.642;10.640;2022-11-15T15:09:36;14.90;91.00
44461;DHT22;30162;53.642;10.640;2022-11-15T15:12:02;14.80;91.10
44461;DHT22;30162;53.642;10.640;2022-11-15T15:14:27;14.80;91.30
44461;DHT22;30162;53.642;10.640;2022-11-15T15:16:53;14.80;91.20
44461;DHT22;30162;53.642;10.640;2022-11-15T15:19:18;14.70;91.60
44461;DHT22;30162;53.642;10.640;2022-11-15T15:21:44;14.60;91.40
44461;DHT22;30162;53.642;10.640;2022-11-15T15:24:15;14.50;91.30
44461;DHT22;30162;53.642;10.640;2022-11-15T15:26:41;14.50;91.40
44461;DHT22;30162;53.642;10.640;2022-11-15T15:29:08;14.50;91.70
44461;DHT22;30162;53.642;10.640;2022-11-15T15:31:34;14.50;91.70
44461;DHT22;30162;53.642;10.640;2022-11-15T15:34:00;14.40;91.70
44461;DHT22;30162;53.642;10.640;2022-11-15T15:36:25;14.40;91.70
44461;DHT22;30162;53.642;10.640;2022-11-15T15:38:51;14.40;91.70
44461;DHT22;30162;53.642;10.640;2022-11-15T15:41:17;14.50;91.60
44461;DHT22;30162;53.642;10.640;2022-11-15T15:43:43;14.40;91.70
44461;DHT22;30162;53.642;10.640;2022-11-15T15:46:15;14.40;91.90
44461;DHT22;30162;53.642;10.640;2022-11-15T15:48:41;14.30;91.70
44461;DHT22;30162;53.642;10.640;2022-11-15T15:51:07;14.30;92.00
44461;DHT22;30162;53.642;10.640;2022-11-15T15:53:33;14.30;92.20
44461;DHT22;30162;53.642;10.640;2022-11-15T15:55:59;14.30;91.70
44461;DHT22;30162;53.642;10.640;2022-11-15T15:58:25;14.40;91.90
44461;DHT22;30162;53.642;10.640;2022-11-15T16:00:51;14.00;92.30
44461;DHT22;30162;53.642;10.640;2022-11-15T16:03:16;14.20;92.20
44461;DHT22;30162;53.642;10.640;2022-11-15T16:05:42;14.40;92.10
44461;DHT22;30162;53.642;10.640;2022-11-15T16:08:22;14.40;92.10
44461;DHT22;30162;53.642;10.640;2022-11-15T16:10:49;14.40;92.10
44461;DHT22;30162;53.642;10.640;2022-11-15T16:13:14;14.50;92.00
44461;DHT22;30162;53.642;10.640;2022-11-15T16:15:40;14.40;92.10
44461;DHT22;30162;53.642;10.640;2022-11-15T16:18:15;14.70;91.90
44461;DHT22;30162;53.642;10.640;2022-11-15T16:20:46;14.70;91.70
44461;DHT22;30162;53.642;10.640;2022-11-15T16:23:16;14.60;91.80
44461;DHT22;30162;53.642;10.640;2022-11-15T16:25:52;14.70;91.80
44461;DHT22;30162;53.642;10.640;2022-11-15T16:28:20;14.80;91.60
44461;DHT22;30162;53.642;10.640;2022-11-15T16:30:46;14.80;91.70
44461;DHT22;30162;53.642;10.640;2022-11-15T16:33:12;14.80;91.60
44461;DHT22;30162;53.642;10.640;2022-11-15T16:35:37;14.90;91.50
44461;DHT22;30162;53.642;10.640;2022-11-15T16:38:03;14.80;91.50
44461;DHT22;30162;53.642;10.640;2022-11-15T16:40:31;14.50;91.90
44461;DHT22;30162;53.642;10.640;2022-11-15T16:42:57;14.70;91.90
44461;DHT22;30162;53.642;10.640;2022-11-15T16:45:24;14.60;91.90
44461;DHT22;30162;53.642;10.640;2022-11-15T16:47:50;14.70;91.80
44461;DHT22;30162;53.642;10.640;2022-11-15T16:50:23;14.80;91.70
44461;DHT22;30162;53.642;10.640;2022-11-15T16:52:54;14.70;91.70
44461;DHT22;30162;53.642;10.640;2022-11-15T16:55:21;14.80;91.70
44461;DHT22;30162;53.642;10.640;2022-11-15T16:57:47;14.80;91.70
44461;DHT22;30162;53.642;10.640;2022-11-15T17:00:14;14.70;91.70
44461;DHT22;30162;53.642;10.640;2022-11-15T17:02:44;14.80;91.70
44461;DHT22;30162;53.642;10.640;2022-11-15T17:05:10;14.90;91.60
44461;DHT22;30162;53.642;10.640;2022-11-15T17:07:36;14.80;91.70
44461;DHT22;30162;53.642;10.640;2022-11-15T17:10:01;14.80;91.70
44461;DHT22;30162;53.642;10.640;2022-11-15T17:12:27;14.80;92.00
44461;DHT22;30162;53.642;10.640;2022-11-15T17:14:55;14.80;91.70
44461;DHT22;30162;53.642;10.640;2022-11-15T17:17:21;14.90;91.70
44461;DHT22;30162;53.642;10.640;2022-11-15T17:19:46;14.70;91.80
44461;DHT22;30162;53.642;10.640;2022-11-15T17:22:12;14.70;91.90
44461;DHT22;30162;53.642;10.640;2022-11-15T17:24:37;14.70;91.90
44461;DHT22;30162;53.642;10.640;2022-11-15T17:27:03;14.80;91.80
44461;DHT22;30162;53.642;10.640;2022-11-15T17:29:29;14.70;91.90
44461;DHT22;30162;53.642;10.640;2022-11-15T17:31:54;14.50;92.10
44461;DHT22;30162;53.642;10.640;2022-11-15T17:34:20;14.60;92.10
44461;DHT22;30162;53.642;10.640;2022-11-15T17:36:46;14.60;92.00
44461;DHT22;30162;53.642;10.640;2022-11-15T17:39:12;14.60;92.00
44461;DHT22;30162;53.642;10.640;2022-11-15T17:41:38;14.60;91.90
44461;DHT22;30162;53.642;10.640;2022-11-15T17:44:03;14.60;92.10